sensor_id;sensor_type;location;lat;lon;timestamp;P1;durP1;ratioP1;P2;durP2;ratioP2
16963;SDS011;8598;50.508;10.436;2022-12-07T00:01:19;9.73;;;6.17;;
16963;SDS011;8598;50.508;10.436;2022-12-07T00:03:48;9.40;;;6.37;;
16963;SDS011;8598;50.508;10.436;2022-12-07T00:06:16;10.27;;;6.60;;
16963;SDS011;8598;50.508;10.436;2022-12-07T00:08:43;12.27;;;6.47;;
16963;SDS011;8598;50.508;10.436;2022-12-07T00:11:11;11.90;;;7.77;;
16963;SDS011;8598;50.508;10.436;2022-12-07T00:13:41;9.97;;;6.37;;
16963;SDS011;8598;50.508;10.436;2022-12-07T00:16:09;10.37;;;7.03;;
16963;SDS011;8598;50.508;10.436;2022-12-07T00:18:37;11.90;;;7.17;;
16963;SDS011;8598;50.508;10.436;2022-12-07T00:21:04;12.47;;;6.90;;
16963;SDS011;8598;50.508;10.436;2022-12-07T00:23:32;8.27;;;6.40;;
16963;SDS011;8598;50.508;10.436;2022-12-07T00:26:03;10.37;;;6.73;;
16963;SDS011;8598;50.508;10.436;2022-12-07T00:28:31;10.33;;;6.73;;
16963;SDS011;8598;50.508;10.436;2022-12-07T00:31:01;13.17;;;7.60;;
16963;SDS011;8598;50.508;10.436;2022-12-07T00:33:29;11.60;;;6.60;;
16963;SDS011;8598;50.508;10.436;2022-12-07T00:35:56;11.00;;;6.70;;
16963;SDS011;8598;50.508;10.436;2022-12-07T00:38:22;10.27;;;6.70;;
16963;SDS011;8598;50.508;10.436;2022-12-07T00:40:53;11.13;;;6.93;;
16963;SDS011;8598;50.508;10.436;2022-12-07T00:43:21;11.77;;;7.20;;
16963;SDS011;8598;50.508;10.436;2022-12-07T00:45:48;10.77;;;6.80;;
16963;SDS011;8598;50.508;10.436;2022-12-07T00:48:16;11.13;;;7.10;;
16963;SDS011;8598;50.508;10.436;2022-12-07T00:50:43;9.03;;;6.00;;
16963;SDS011;8598;50.508;10.436;2022-12-07T00:53:10;9.23;;;5.40;;
16963;SDS011;8598;50.508;10.436;2022-12-07T00:55:36;9.03;;;6.07;;
16963;SDS011;8598;50.508;10.436;2022-12-07T00:58:03;10.37;;;6.77;;
16963;SDS011;8598;50.508;10.436;2022-12-07T01:00:30;9.40;;;5.70;;
16963;SDS011;8598;50.508;10.436;2022-12-07T01:02:57;12.20;;;6.50;;
16963;SDS011;8598;50.508;10.436;2022-12-07T01:05:25;9.50;;;5.77;;
16963;SDS011;8598;50.508;10.436;2022-12-07T01:07:52;11.80;;;6.70;;
16963;SDS011;8598;50.508;10.436;2022-12-07T01:10:19;11.60;;;6.43;;
16963;SDS011;8598;50.508;10.436;2022-12-07T01:12:46;10.37;;;6.63;;
16963;SDS011;8598;50.508;10.436;2022-12-07T01:15:12;13.13;;;6.97;;
16963;SDS011;8598;50.508;10.436;2022-12-07T01:17:39;12.97;;;7.27;;
16963;SDS011;8598;50.508;10.436;2022-12-07T01:20:06;13.60;;;8.13;;
16963;SDS011;8598;50.508;10.436;2022-12-07T01:22:37;10.87;;;7.73;;
16963;SDS011;8598;50.508;10.436;2022-12-07T01:25:04;12.60;;;7.40;;
16963;SDS011;8598;50.508;10.436;2022-12-07T01:27:32;14.57;;;7.80;;
16963;SDS011;8598;50.508;10.436;2022-12-07T01:29:59;12.60;;;7.63;;
16963;SDS011;8598;50.508;10.436;2022-12-07T01:32:26;11.10;;;6.73;;
16963;SDS011;8598;50.508;10.436;2022-12-07T01:34:53;12.67;;;7.27;;
16963;SDS011;8598;50.508;10.436;2022-12-07T01:37:19;10.77;;;7.47;;
16963;SDS011;8598;50.508;10.436;2022-12-07T01:39:49;9.63;;;6.93;;
16963;SDS011;8598;50.508;10.436;2022-12-07T01:42:16;10.20;;;6.60;;
16963;SDS011;8598;50.508;10.436;2022-12-07T01:47:48;10.73;;;6.97;;
16963;SDS011;8598;50.508;10.436;2022-12-07T01:50:18;13.20;;;8.10;;
16963;SDS011;8598;50.508;10.436;2022-12-07T01:52:45;12.30;;;8.00;;
16963;SDS011;8598;50.508;10.436;2022-12-07T01:55:16;11.67;;;7.60;;
16963;SDS011;8598;50.508;10.436;2022-12-07T01:57:45;10.63;;;7.60;;
16963;SDS011;8598;50.508;10.436;2022-12-07T02:00:14;12.37;;;8.63;;
16963;SDS011;8598;50.508;10.436;2022-12-07T02:02:43;14.80;;;8.67;;
16963;SDS011;8598;50.508;10.436;2022-12-07T02:05:14;13.47;;;8.77;;
16963;SDS011;8598;50.508;10.436;2022-12-07T02:07:42;11.87;;;7.63;;
16963;SDS011;8598;50.508;10.436;2022-12-07T02:10:12;13.10;;;8.33;;
16963;SDS011;8598;50.508;10.436;2022-12-07T02:12:41;13.40;;;8.53;;
16963;SDS011;8598;50.508;10.436;2022-12-07T02:15:10;14.90;;;9.33;;
16963;SDS011;8598;50.508;10.436;2022-12-07T02:17:42;12.20;;;8.27;;
16963;SDS011;8598;50.508;10.436;2022-12-07T02:20:21;13.47;;;8.67;;
16963;SDS011;8598;50.508;10.436;2022-12-07T02:29:10;14.20;;;8.33;;
16963;SDS011;8598;50.508;10.436;2022-12-07T02:31:43;12.67;;;7.80;;
16963;SDS011;8598;50.508;10.436;2022-12-07T02:34:14;12.47;;;7.90;;
16963;SDS011;8598;50.508;10.436;2022-12-07T02:36:47;15.10;;;8.43;;
16963;SDS011;8598;50.508;10.436;2022-12-07T02:39:20;14.77;;;8.97;;
16963;SDS011;8598;50.508;10.436;2022-12-07T02:41:55;15.10;;;8.93;;
16963;SDS011;8598;50.508;10.436;2022-12-07T02:44:29;16.93;;;10.33;;
16963;SDS011;8598;50.508;10.436;2022-12-07T02:46:59;16.63;;;8.77;;
16963;SDS011;8598;50.508;10.436;2022-12-07T02:49:29;14.40;;;8.73;;
16963;SDS011;8598;50.508;10.436;2022-12-07T02:51:57;14.60;;;9.17;;
16963;SDS011;8598;50.508;10.436;2022-12-07T02:54:24;15.10;;;8.97;;
16963;SDS011;8598;50.508;10.436;2022-12-07T02:56:52;15.97;;;9.67;;
16963;SDS011;8598;50.508;10.436;2022-12-07T02:59:31;18.00;;;9.03;;
16963;SDS011;8598;50.508;10.436;2022-12-07T03:02:15;14.37;;;8.37;;
16963;SDS011;8598;50.508;10.436;2022-12-07T03:04:52;14.73;;;9.40;;
16963;SDS011;8598;50.508;10.436;2022-12-07T03:07:29;16.20;;;8.37;;
16963;SDS011;8598;50.508;10.436;2022-12-07T03:10:03;14.83;;;8.93;;
16963;SDS011;8598;50.508;10.436;2022-12-07T03:12:35;13.23;;;9.27;;
16963;SDS011;8598;50.508;10.436;2022-12-07T03:15:12;17.80;;;7.90;;
16963;SDS011;8598;50.508;10.436;2022-12-07T03:17:44;13.23;;;8.23;;
16963;SDS011;8598;50.508;10.436;2022-12-07T03:20:12;11.43;;;8.17;;
16963;SDS011;8598;50.508;10.436;2022-12-07T03:22:44;11.17;;;7.60;;
16963;SDS011;8598;50.508;10.436;2022-12-07T03:25:13;13.97;;;7.90;;
16963;SDS011;8598;50.508;10.436;2022-12-07T03:27:43;17.00;;;9.00;;
16963;SDS011;8598;50.508;10.436;2022-12-07T03:30:17;15.10;;;8.87;;
16963;SDS011;8598;50.508;10.436;2022-12-07T03:32:47;12.93;;;8.53;;
16963;SDS011;8598;50.508;10.436;2022-12-07T03:35:19;16.13;;;8.70;;
16963;SDS011;8598;50.508;10.436;2022-12-07T03:37:51;16.10;;;9.77;;
16963;SDS011;8598;50.508;10.436;2022-12-07T03:40:22;15.13;;;9.00;;
16963;SDS011;8598;50.508;10.436;2022-12-07T03:42:53;17.57;;;9.30;;
16963;SDS011;8598;50.508;10.436;2022-12-07T03:45:23;17.73;;;10.73;;
16963;SDS011;8598;50.508;10.436;2022-12-07T03:47:59;16.27;;;9.87;;
16963;SDS011;8598;50.508;10.436;2022-12-07T03:50:35;17.80;;;10.13;;
16963;SDS011;8598;50.508;10.436;2022-12-07T03:53:08;19.23;;;10.43;;
16963;SDS011;8598;50.508;10.436;2022-12-07T03:55:41;21.27;;;11.37;;
16963;SDS011;8598;50.508;10.436;2022-12-07T03:58:10;18.67;;;11.33;;
16963;SDS011;8598;50.508;10.436;2022-12-07T04:00:41;21.07;;;10.27;;
16963;SDS011;8598;50.508;10.436;2022-12-07T04:03:10;19.33;;;11.47;;
16963;SDS011;8598;50.508;10.436;2022-12-07T04:05:37;19.57;;;10.17;;
16963;SDS011;8598;50.508;10.436;2022-12-07T04:08:05;20.20;;;11.07;;
16963;SDS011;8598;50.508;10.436;2022-12-07T04:10:31;19.83;;;10.77;;
16963;SDS011;8598;50.508;10.436;2022-12-07T04:12:58;18.17;;;9.70;;
16963;SDS011;8598;50.508;10.436;2022-12-07T04:15:25;16.47;;;9.97;;
16963;SDS011;8598;50.508;10.436;2022-12-07T04:17:53;19.30;;;9.20;;
16963;SDS011;8598;50.508;10.436;2022-12-07T04:20:20;16.87;;;10.07;;
16963;SDS011;8598;50.508;10.436;2022-12-07T04:22:47;17.50;;;10.07;;
16963;SDS011;8598;50.508;10.436;2022-12-07T04:25:14;16.73;;;9.00;;
16963;SDS011;8598;50.508;10.436;2022-12-07T04:27:41;16.77;;;9.40;;
16963;SDS011;8598;50.508;10.436;2022-12-07T04:30:08;17.37;;;9.30;;
16963;SDS011;8598;50.508;10.436;2022-12-07T04:32:35;13.63;;;8.60;;
16963;SDS011;8598;50.508;10.436;2022-12-07T04:35:03;16.30;;;9.63;;
16963;SDS011;8598;50.508;10.436;2022-12-07T04:37:31;18.63;;;9.90;;
16963;SDS011;8598;50.508;10.436;2022-12-07T04:39:57;14.30;;;9.77;;
16963;SDS011;8598;50.508;10.436;2022-12-07T04:42:24;16.07;;;10.10;;
16963;SDS011;8598;50.508;10.436;2022-12-07T04:44:51;18.37;;;9.87;;
16963;SDS011;8598;50.508;10.436;2022-12-07T04:47:18;17.97;;;10.73;;
16963;SDS011;8598;50.508;10.436;2022-12-07T04:49:44;19.07;;;11.60;;
16963;SDS011;8598;50.508;10.436;2022-12-07T04:52:12;22.03;;;10.70;;
16963;SDS011;8598;50.508;10.436;2022-12-07T04:54:39;21.97;;;11.07;;
16963;SDS011;8598;50.508;10.436;2022-12-07T04:57:06;19.27;;;11.10;;
16963;SDS011;8598;50.508;10.436;2022-12-07T04:59:32;18.40;;;10.63;;
16963;SDS011;8598;50.508;10.436;2022-12-07T05:01:59;20.50;;;10.80;;
16963;SDS011;8598;50.508;10.436;2022-12-07T05:04:26;19.33;;;10.00;;
16963;SDS011;8598;50.508;10.436;2022-12-07T05:06:53;16.00;;;9.93;;
16963;SDS011;8598;50.508;10.436;2022-12-07T05:09:21;17.23;;;9.80;;
16963;SDS011;8598;50.508;10.436;2022-12-07T05:11:47;20.17;;;9.33;;
16963;SDS011;8598;50.508;10.436;2022-12-07T05:14:15;16.47;;;9.13;;
16963;SDS011;8598;50.508;10.436;2022-12-07T05:16:43;16.50;;;10.37;;
16963;SDS011;8598;50.508;10.436;2022-12-07T05:19:11;18.30;;;9.30;;
16963;SDS011;8598;50.508;10.436;2022-12-07T05:21:38;15.10;;;9.40;;
16963;SDS011;8598;50.508;10.436;2022-12-07T05:24:05;16.97;;;9.90;;
16963;SDS011;8598;50.508;10.436;2022-12-07T05:26:34;14.03;;;9.07;;
16963;SDS011;8598;50.508;10.436;2022-12-07T05:29:00;15.67;;;9.10;;
16963;SDS011;8598;50.508;10.436;2022-12-07T05:31:27;18.23;;;10.37;;
16963;SDS011;8598;50.508;10.436;2022-12-07T05:33:54;16.40;;;9.27;;
16963;SDS011;8598;50.508;10.436;2022-12-07T05:36:21;18.30;;;10.13;;
16963;SDS011;8598;50.508;10.436;2022-12-07T05:38:48;18.57;;;10.13;;
16963;SDS011;8598;50.508;10.436;2022-12-07T05:41:16;19.20;;;10.37;;
16963;SDS011;8598;50.508;10.436;2022-12-07T05:44:02;21.57;;;11.33;;
16963;SDS011;8598;50.508;10.436;2022-12-07T05:46:28;25.57;;;10.53;;
16963;SDS011;8598;50.508;10.436;2022-12-07T05:48:55;21.47;;;11.77;;
16963;SDS011;8598;50.508;10.436;2022-12-07T05:51:22;16.33;;;9.63;;
16963;SDS011;8598;50.508;10.436;2022-12-07T05:53:49;17.80;;;10.20;;
16963;SDS011;8598;50.508;10.436;2022-12-07T05:56:15;17.63;;;10.53;;
16963;SDS011;8598;50.508;10.436;2022-12-07T05:58:42;21.30;;;10.90;;
16963;SDS011;8598;50.508;10.436;2022-12-07T06:01:28;18.17;;;10.67;;
16963;SDS011;8598;50.508;10.436;2022-12-07T06:03:55;16.10;;;10.27;;
16963;SDS011;8598;50.508;10.436;2022-12-07T06:06:21;19.30;;;11.70;;
16963;SDS011;8598;50.508;10.436;2022-12-07T06:08:48;16.57;;;10.20;;
16963;SDS011;8598;50.508;10.436;2022-12-07T06:11:15;18.67;;;10.77;;
16963;SDS011;8598;50.508;10.436;2022-12-07T06:13:59;16.73;;;9.70;;
16963;SDS011;8598;50.508;10.436;2022-12-07T06:16:27;19.93;;;10.27;;
16963;SDS011;8598;50.508;10.436;2022-12-07T06:18:54;18.67;;;10.57;;
16963;SDS011;8598;50.508;10.436;2022-12-07T06:21:21;18.37;;;11.67;;
16963;SDS011;8598;50.508;10.436;2022-12-07T06:23:47;16.63;;;10.10;;
16963;SDS011;8598;50.508;10.436;2022-12-07T06:26:14;17.77;;;10.80;;
16963;SDS011;8598;50.508;10.436;2022-12-07T06:28:41;16.20;;;9.37;;
16963;SDS011;8598;50.508;10.436;2022-12-07T06:31:08;16.87;;;10.10;;
16963;SDS011;8598;50.508;10.436;2022-12-07T06:33:37;17.93;;;11.17;;
16963;SDS011;8598;50.508;10.436;2022-12-07T06:36:03;18.83;;;10.87;;
16963;SDS011;8598;50.508;10.436;2022-12-07T06:38:30;18.77;;;11.27;;
16963;SDS011;8598;50.508;10.436;2022-12-07T06:40:57;17.80;;;10.43;;
16963;SDS011;8598;50.508;10.436;2022-12-07T06:43:24;16.33;;;10.87;;
16963;SDS011;8598;50.508;10.436;2022-12-07T06:45:51;17.17;;;10.30;;
16963;SDS011;8598;50.508;10.436;2022-12-07T06:48:17;15.10;;;9.10;;
16963;SDS011;8598;50.508;10.436;2022-12-07T06:50:49;17.87;;;9.63;;
16963;SDS011;8598;50.508;10.436;2022-12-07T06:53:16;17.60;;;10.53;;
16963;SDS011;8598;50.508;10.436;2022-12-07T06:55:42;20.07;;;11.00;;
16963;SDS011;8598;50.508;10.436;2022-12-07T06:58:09;16.63;;;10.97;;
16963;SDS011;8598;50.508;10.436;2022-12-07T07:00:36;14.10;;;8.63;;
16963;SDS011;8598;50.508;10.436;2022-12-07T07:03:03;16.80;;;9.03;;
16963;SDS011;8598;50.508;10.436;2022-12-07T07:05:29;15.53;;;9.93;;
16963;SDS011;8598;50.508;10.436;2022-12-07T07:07:57;16.00;;;10.67;;
16963;SDS011;8598;50.508;10.436;2022-12-07T07:10:24;15.57;;;9.57;;
16963;SDS011;8598;50.508;10.436;2022-12-07T07:12:51;13.13;;;8.70;;
16963;SDS011;8598;50.508;10.436;2022-12-07T07:15:18;13.27;;;8.63;;
16963;SDS011;8598;50.508;10.436;2022-12-07T07:17:44;14.10;;;8.97;;
16963;SDS011;8598;50.508;10.436;2022-12-07T07:20:11;12.07;;;7.40;;
16963;SDS011;8598;50.508;10.436;2022-12-07T07:22:38;20.80;;;13.50;;
16963;SDS011;8598;50.508;10.436;2022-12-07T07:25:07;15.43;;;9.50;;
16963;SDS011;8598;50.508;10.436;2022-12-07T07:27:34;12.60;;;8.73;;
16963;SDS011;8598;50.508;10.436;2022-12-07T07:30:04;16.00;;;9.83;;
16963;SDS011;8598;50.508;10.436;2022-12-07T07:32:31;15.60;;;10.10;;
16963;SDS011;8598;50.508;10.436;2022-12-07T07:34:58;15.93;;;8.90;;
16963;SDS011;8598;50.508;10.436;2022-12-07T07:37:25;13.13;;;8.87;;
16963;SDS011;8598;50.508;10.436;2022-12-07T07:39:52;15.57;;;9.10;;
16963;SDS011;8598;50.508;10.436;2022-12-07T07:42:20;15.90;;;9.07;;
16963;SDS011;8598;50.508;10.436;2022-12-07T07:44:47;17.47;;;9.57;;
16963;SDS011;8598;50.508;10.436;2022-12-07T07:47:14;21.57;;;9.60;;
16963;SDS011;8598;50.508;10.436;2022-12-07T07:49:40;16.30;;;9.77;;
16963;SDS011;8598;50.508;10.436;2022-12-07T07:52:07;14.87;;;7.87;;
16963;SDS011;8598;50.508;10.436;2022-12-07T07:54:36;14.73;;;9.13;;
16963;SDS011;8598;50.508;10.436;2022-12-07T07:57:03;14.50;;;8.17;;
16963;SDS011;8598;50.508;10.436;2022-12-07T07:59:31;18.27;;;8.53;;
16963;SDS011;8598;50.508;10.436;2022-12-07T08:01:57;14.97;;;9.17;;
16963;SDS011;8598;50.508;10.436;2022-12-07T08:04:24;15.37;;;8.40;;
16963;SDS011;8598;50.508;10.436;2022-12-07T08:06:51;11.57;;;8.03;;
16963;SDS011;8598;50.508;10.436;2022-12-07T08:09:18;13.73;;;7.20;;
16963;SDS011;8598;50.508;10.436;2022-12-07T08:11:44;12.13;;;7.33;;
16963;SDS011;8598;50.508;10.436;2022-12-07T08:14:11;11.73;;;7.97;;
16963;SDS011;8598;50.508;10.436;2022-12-07T08:16:39;11.40;;;7.43;;
16963;SDS011;8598;50.508;10.436;2022-12-07T08:19:06;10.27;;;7.10;;
16963;SDS011;8598;50.508;10.436;2022-12-07T08:21:33;10.23;;;6.63;;
16963;SDS011;8598;50.508;10.436;2022-12-07T08:24:00;10.47;;;6.43;;
16963;SDS011;8598;50.508;10.436;2022-12-07T08:26:26;7.47;;;5.83;;
16963;SDS011;8598;50.508;10.436;2022-12-07T08:28:53;9.37;;;6.63;;
16963;SDS011;8598;50.508;10.436;2022-12-07T08:31:20;9.23;;;5.83;;
16963;SDS011;8598;50.508;10.436;2022-12-07T08:33:48;8.03;;;6.10;;
16963;SDS011;8598;50.508;10.436;2022-12-07T08:36:15;9.37;;;6.20;;
16963;SDS011;8598;50.508;10.436;2022-12-07T08:38:43;8.60;;;6.43;;
16963;SDS011;8598;50.508;10.436;2022-12-07T08:41:10;9.83;;;6.37;;
16963;SDS011;8598;50.508;10.436;2022-12-07T08:43:37;10.07;;;7.23;;
16963;SDS011;8598;50.508;10.436;2022-12-07T08:46:06;10.77;;;7.53;;
16963;SDS011;8598;50.508;10.436;2022-12-07T08:48:35;14.07;;;7.40;;
16963;SDS011;8598;50.508;10.436;2022-12-07T08:51:06;7.73;;;5.97;;
16963;SDS011;8598;50.508;10.436;2022-12-07T08:53:33;7.33;;;4.80;;
16963;SDS011;8598;50.508;10.436;2022-12-07T08:56:01;5.57;;;4.00;;
16963;SDS011;8598;50.508;10.436;2022-12-07T08:58:28;6.53;;;4.80;;
16963;SDS011;8598;50.508;10.436;2022-12-07T09:00:55;7.63;;;4.90;;
16963;SDS011;8598;50.508;10.436;2022-12-07T09:03:22;7.33;;;5.07;;
16963;SDS011;8598;50.508;10.436;2022-12-07T09:05:49;6.60;;;4.43;;
16963;SDS011;8598;50.508;10.436;2022-12-07T09:08:17;8.30;;;4.27;;
16963;SDS011;8598;50.508;10.436;2022-12-07T09:10:44;6.07;;;4.60;;
16963;SDS011;8598;50.508;10.436;2022-12-07T09:13:11;6.63;;;4.93;;
16963;SDS011;8598;50.508;10.436;2022-12-07T09:15:38;11.80;;;6.27;;
16963;SDS011;8598;50.508;10.436;2022-12-07T09:18:04;7.80;;;5.07;;
16963;SDS011;8598;50.508;10.436;2022-12-07T09:20:31;7.70;;;5.07;;
16963;SDS011;8598;50.508;10.436;2022-12-07T09:22:58;8.40;;;5.10;;
16963;SDS011;8598;50.508;10.436;2022-12-07T09:25:29;9.40;;;7.03;;
16963;SDS011;8598;50.508;10.436;2022-12-07T09:27:56;10.07;;;5.73;;
16963;SDS011;8598;50.508;10.436;2022-12-07T09:30:23;7.50;;;5.30;;
16963;SDS011;8598;50.508;10.436;2022-12-07T09:32:50;6.80;;;4.83;;
16963;SDS011;8598;50.508;10.436;2022-12-07T09:35:18;7.67;;;4.30;;
16963;SDS011;8598;50.508;10.436;2022-12-07T09:37:45;9.40;;;6.13;;
16963;SDS011;8598;50.508;10.436;2022-12-07T09:40:12;6.57;;;4.90;;
16963;SDS011;8598;50.508;10.436;2022-12-07T09:42:43;6.23;;;4.60;;
16963;SDS011;8598;50.508;10.436;2022-12-07T09:45:14;5.33;;;4.63;;
16963;SDS011;8598;50.508;10.436;2022-12-07T09:47:45;6.90;;;4.80;;
16963;SDS011;8598;50.508;10.436;2022-12-07T09:50:12;4.53;;;4.03;;
16963;SDS011;8598;50.508;10.436;2022-12-07T09:52:42;6.73;;;5.27;;
16963;SDS011;8598;50.508;10.436;2022-12-07T09:55:11;7.60;;;4.57;;
16963;SDS011;8598;50.508;10.436;2022-12-07T09:57:43;8.83;;;5.93;;
16963;SDS011;8598;50.508;10.436;2022-12-07T10:00:12;5.90;;;4.87;;
16963;SDS011;8598;50.508;10.436;2022-12-07T10:02:41;10.00;;;5.07;;
16963;SDS011;8598;50.508;10.436;2022-12-07T10:05:12;7.90;;;5.07;;
16963;SDS011;8598;50.508;10.436;2022-12-07T10:07:40;8.37;;;4.43;;
16963;SDS011;8598;50.508;10.436;2022-12-07T10:10:12;6.63;;;5.10;;
16963;SDS011;8598;50.508;10.436;2022-12-07T10:12:59;8.57;;;4.97;;
16963;SDS011;8598;50.508;10.436;2022-12-07T10:15:40;7.47;;;4.70;;
16963;SDS011;8598;50.508;10.436;2022-12-07T10:18:16;8.20;;;5.00;;
16963;SDS011;8598;50.508;10.436;2022-12-07T10:20:45;5.27;;;4.10;;
16963;SDS011;8598;50.508;10.436;2022-12-07T10:23:13;8.27;;;4.60;;
16963;SDS011;8598;50.508;10.436;2022-12-07T10:25:41;7.87;;;4.43;;
16963;SDS011;8598;50.508;10.436;2022-12-07T10:28:16;8.40;;;4.37;;
16963;SDS011;8598;50.508;10.436;2022-12-07T10:30:52;6.73;;;4.47;;
16963;SDS011;8598;50.508;10.436;2022-12-07T10:33:30;4.00;;;3.47;;
16963;SDS011;8598;50.508;10.436;2022-12-07T10:35:58;4.80;;;3.90;;
16963;SDS011;8598;50.508;10.436;2022-12-07T10:38:26;8.07;;;4.03;;
16963;SDS011;8598;50.508;10.436;2022-12-07T10:41:02;6.67;;;4.40;;
16963;SDS011;8598;50.508;10.436;2022-12-07T10:43:31;7.17;;;4.67;;
16963;SDS011;8598;50.508;10.436;2022-12-07T10:52:43;4.67;;;3.57;;
16963;SDS011;8598;50.508;10.436;2022-12-07T10:55:20;6.13;;;3.40;;
16963;SDS011;8598;50.508;10.436;2022-12-07T10:58:04;5.63;;;3.53;;
16963;SDS011;8598;50.508;10.436;2022-12-07T11:00:48;7.57;;;3.87;;
16963;SDS011;8598;50.508;10.436;2022-12-07T11:03:25;7.77;;;3.73;;
16963;SDS011;8598;50.508;10.436;2022-12-07T11:06:01;6.23;;;3.97;;
16963;SDS011;8598;50.508;10.436;2022-12-07T11:08:39;3.93;;;3.40;;
16963;SDS011;8598;50.508;10.436;2022-12-07T11:11:19;4.33;;;3.50;;
16963;SDS011;8598;50.508;10.436;2022-12-07T11:13:52;5.03;;;3.67;;
16963;SDS011;8598;50.508;10.436;2022-12-07T11:16:26;6.57;;;3.80;;
16963;SDS011;8598;50.508;10.436;2022-12-07T11:19:14;4.70;;;3.27;;
16963;SDS011;8598;50.508;10.436;2022-12-07T11:22:04;7.80;;;4.57;;
16963;SDS011;8598;50.508;10.436;2022-12-07T11:24:40;3.27;;;2.93;;
16963;SDS011;8598;50.508;10.436;2022-12-07T11:27:17;8.53;;;5.77;;
16963;SDS011;8598;50.508;10.436;2022-12-07T11:29:53;6.70;;;4.03;;
16963;SDS011;8598;50.508;10.436;2022-12-07T11:32:33;6.70;;;3.17;;
16963;SDS011;8598;50.508;10.436;2022-12-07T11:35:28;6.10;;;4.27;;
16963;SDS011;8598;50.508;10.436;2022-12-07T11:38:01;5.23;;;4.00;;
16963;SDS011;8598;50.508;10.436;2022-12-07T11:40:36;4.20;;;3.30;;
16963;SDS011;8598;50.508;10.436;2022-12-07T11:43:05;6.60;;;3.50;;
16963;SDS011;8598;50.508;10.436;2022-12-07T11:45:41;5.83;;;3.30;;
16963;SDS011;8598;50.508;10.436;2022-12-07T11:48:12;4.63;;;3.33;;
16963;SDS011;8598;50.508;10.436;2022-12-07T11:50:45;3.27;;;2.80;;
16963;SDS011;8598;50.508;10.436;2022-12-07T11:53:17;3.73;;;2.47;;
16963;SDS011;8598;50.508;10.436;2022-12-07T11:55:49;7.27;;;3.17;;
16963;SDS011;8598;50.508;10.436;2022-12-07T11:58:22;4.33;;;2.60;;
16963;SDS011;8598;50.508;10.436;2022-12-07T12:01:07;5.37;;;3.33;;
16963;SDS011;8598;50.508;10.436;2022-12-07T12:03:42;5.00;;;3.00;;
16963;SDS011;8598;50.508;10.436;2022-12-07T12:06:11;3.90;;;2.43;;
16963;SDS011;8598;50.508;10.436;2022-12-07T12:08:38;2.97;;;2.50;;
16963;SDS011;8598;50.508;10.436;2022-12-07T12:11:13;4.07;;;2.87;;
16963;SDS011;8598;50.508;10.436;2022-12-07T12:16:52;11.67;;;5.83;;
16963;SDS011;8598;50.508;10.436;2022-12-07T12:22:26;5.40;;;4.23;;
16963;SDS011;8598;50.508;10.436;2022-12-07T12:25:00;5.07;;;3.13;;
16963;SDS011;8598;50.508;10.436;2022-12-07T12:27:34;6.50;;;3.77;;
16963;SDS011;8598;50.508;10.436;2022-12-07T12:30:04;7.63;;;4.47;;
16963;SDS011;8598;50.508;10.436;2022-12-07T12:32:35;4.23;;;2.90;;
16963;SDS011;8598;50.508;10.436;2022-12-07T12:35:27;5.70;;;3.73;;
16963;SDS011;8598;50.508;10.436;2022-12-07T12:38:01;8.27;;;4.33;;
16963;SDS011;8598;50.508;10.436;2022-12-07T12:40:51;4.23;;;3.17;;
16963;SDS011;8598;50.508;10.436;2022-12-07T12:55:19;4.80;;;4.10;;
16963;SDS011;8598;50.508;10.436;2022-12-07T13:03:54;10.43;;;7.27;;
16963;SDS011;8598;50.508;10.436;2022-12-07T13:06:31;7.73;;;4.37;;
16963;SDS011;8598;50.508;10.436;2022-12-07T13:09:00;9.10;;;4.73;;
16963;SDS011;8598;50.508;10.436;2022-12-07T13:11:31;15.60;;;8.17;;
16963;SDS011;8598;50.508;10.436;2022-12-07T13:17:07;14.30;;;8.67;;
16963;SDS011;8598;50.508;10.436;2022-12-07T13:22:38;6.10;;;4.17;;
16963;SDS011;8598;50.508;10.436;2022-12-07T13:25:27;6.27;;;4.57;;
16963;SDS011;8598;50.508;10.436;2022-12-07T13:28:00;7.13;;;4.97;;
16963;SDS011;8598;50.508;10.436;2022-12-07T13:30:33;7.53;;;4.93;;
16963;SDS011;8598;50.508;10.436;2022-12-07T13:33:10;10.60;;;6.80;;
16963;SDS011;8598;50.508;10.436;2022-12-07T13:35:38;7.47;;;5.07;;
16963;SDS011;8598;50.508;10.436;2022-12-07T13:38:13;9.57;;;6.10;;
16963;SDS011;8598;50.508;10.436;2022-12-07T13:40:59;12.23;;;7.83;;
16963;SDS011;8598;50.508;10.436;2022-12-07T13:43:41;8.33;;;4.00;;
16963;SDS011;8598;50.508;10.436;2022-12-07T13:46:09;9.27;;;4.47;;
16963;SDS011;8598;50.508;10.436;2022-12-07T13:48:43;7.10;;;3.40;;
16963;SDS011;8598;50.508;10.436;2022-12-07T13:51:16;3.83;;;2.97;;
16963;SDS011;8598;50.508;10.436;2022-12-07T13:53:49;5.90;;;3.30;;
16963;SDS011;8598;50.508;10.436;2022-12-07T13:56:17;4.83;;;2.70;;
16963;SDS011;8598;50.508;10.436;2022-12-07T13:58:48;10.70;;;3.53;;
16963;SDS011;8598;50.508;10.436;2022-12-07T14:01:15;6.53;;;3.87;;
16963;SDS011;8598;50.508;10.436;2022-12-07T14:03:43;5.63;;;4.00;;
16963;SDS011;8598;50.508;10.436;2022-12-07T14:06:14;8.73;;;5.07;;
16963;SDS011;8598;50.508;10.436;2022-12-07T14:08:44;5.20;;;3.00;;
16963;SDS011;8598;50.508;10.436;2022-12-07T14:11:13;4.40;;;3.50;;
16963;SDS011;8598;50.508;10.436;2022-12-07T14:13:56;4.63;;;2.90;;
16963;SDS011;8598;50.508;10.436;2022-12-07T14:16:25;5.03;;;3.10;;
16963;SDS011;8598;50.508;10.436;2022-12-07T14:18:53;5.60;;;2.73;;
16963;SDS011;8598;50.508;10.436;2022-12-07T14:21:22;6.80;;;4.63;;
16963;SDS011;8598;50.508;10.436;2022-12-07T14:26:45;6.10;;;4.13;;
16963;SDS011;8598;50.508;10.436;2022-12-07T14:32:17;11.20;;;8.13;;
16963;SDS011;8598;50.508;10.436;2022-12-07T14:34:57;9.77;;;5.53;;
16963;SDS011;8598;50.508;10.436;2022-12-07T14:37:29;6.17;;;3.70;;
16963;SDS011;8598;50.508;10.436;2022-12-07T14:39:56;5.30;;;4.43;;
16963;SDS011;8598;50.508;10.436;2022-12-07T14:42:24;7.03;;;3.40;;
16963;SDS011;8598;50.508;10.436;2022-12-07T14:44:57;6.60;;;3.60;;
16963;SDS011;8598;50.508;10.436;2022-12-07T14:47:25;16.87;;;10.57;;
16963;SDS011;8598;50.508;10.436;2022-12-07T14:49:52;10.77;;;5.90;;
16963;SDS011;8598;50.508;10.436;2022-12-07T14:52:20;5.93;;;4.23;;
16963;SDS011;8598;50.508;10.436;2022-12-07T14:54:50;5.40;;;4.47;;
16963;SDS011;8598;50.508;10.436;2022-12-07T14:57:17;6.83;;;4.07;;
16963;SDS011;8598;50.508;10.436;2022-12-07T14:59:44;7.13;;;3.43;;
16963;SDS011;8598;50.508;10.436;2022-12-07T15:02:13;4.57;;;3.20;;
16963;SDS011;8598;50.508;10.436;2022-12-07T15:04:40;5.87;;;3.77;;
16963;SDS011;8598;50.508;10.436;2022-12-07T15:07:09;6.10;;;3.40;;
16963;SDS011;8598;50.508;10.436;2022-12-07T15:09:40;6.33;;;3.40;;
16963;SDS011;8598;50.508;10.436;2022-12-07T15:12:07;4.83;;;3.50;;
16963;SDS011;8598;50.508;10.436;2022-12-07T15:14:34;4.73;;;3.57;;
16963;SDS011;8598;50.508;10.436;2022-12-07T15:17:00;4.67;;;3.70;;
16963;SDS011;8598;50.508;10.436;2022-12-07T15:19:28;5.43;;;4.03;;
16963;SDS011;8598;50.508;10.436;2022-12-07T15:21:55;4.20;;;3.40;;
16963;SDS011;8598;50.508;10.436;2022-12-07T15:24:23;11.67;;;6.47;;
16963;SDS011;8598;50.508;10.436;2022-12-07T15:26:50;7.30;;;4.00;;
16963;SDS011;8598;50.508;10.436;2022-12-07T15:29:17;9.17;;;4.33;;
16963;SDS011;8598;50.508;10.436;2022-12-07T15:31:44;5.23;;;3.70;;
16963;SDS011;8598;50.508;10.436;2022-12-07T15:34:10;5.40;;;3.47;;
16963;SDS011;8598;50.508;10.436;2022-12-07T15:36:38;7.77;;;4.43;;
16963;SDS011;8598;50.508;10.436;2022-12-07T15:39:05;7.43;;;4.17;;
16963;SDS011;8598;50.508;10.436;2022-12-07T15:41:32;4.90;;;4.00;;
16963;SDS011;8598;50.508;10.436;2022-12-07T15:43:59;5.47;;;3.90;;
16963;SDS011;8598;50.508;10.436;2022-12-07T15:46:43;9.00;;;4.13;;